sensor_id;sensor_type;location;lat;lon;timestamp;pressure;altitude;pressure_sealevel;temperature;humidity
48364;BME280;34170;54.364;18.582;2022-11-03T00:02:11;100556.19;;;8.38;100.00
48364;BME280;34170;54.364;18.582;2022-11-03T00:04:39;100566.31;;;8.35;100.00
48364;BME280;34170;54.364;18.582;2022-11-03T00:07:06;100568.75;;;8.49;100.00
48364;BME280;34170;54.364;18.582;2022-11-03T00:09:33;100563.91;;;8.32;100.00
48364;BME280;34170;54.364;18.582;2022-11-03T00:12:01;100569.97;;;8.45;100.00
48364;BME280;34170;54.364;18.582;2022-11-03T00:14:28;100577.78;;;8.26;100.00
48364;BME280;34170;54.364;18.582;2022-11-03T00:16:55;100580.97;;;8.19;100.00
48364;BME280;34170;54.364;18.582;2022-11-03T00:19:23;100574.25;;;8.25;100.00
48364;BME280;34170;54.364;18.582;2022-11-03T00:21:50;100579.34;;;8.39;100.00
48364;BME280;34170;54.364;18.582;2022-11-03T00:24:18;100574.63;;;8.32;100.00
48364;BME280;34170;54.364;18.582;2022-11-03T00:26:46;100577.78;;;8.48;100.00
48364;BME280;34170;54.364;18.582;2022-11-03T00:29:14;100580.81;;;8.55;100.00
48364;BME280;34170;54.364;18.582;2022-11-03T00:31:43;100583.72;;;8.40;100.00
48364;BME280;34170;54.364;18.582;2022-11-03T00:34:10;100580.72;;;8.45;100.00
48364;BME280;34170;54.364;18.582;2022-11-03T00:36:40;100588.47;;;8.37;100.00
48364;BME280;34170;54.364;18.582;2022-11-03T00:39:09;100580.59;;;8.35;100.00
48364;BME280;34170;54.364;18.582;2022-11-03T00:41:36;100590.31;;;8.36;100.00
48364;BME280;34170;54.364;18.582;2022-11-03T00:44:04;100584.13;;;8.25;100.00
48364;BME280;34170;54.364;18.582;2022-11-03T00:46:31;100599.22;;;8.26;100.00
48364;BME280;34170;54.364;18.582;2022-11-03T00:49:03;100591.19;;;8.14;100.00
48364;BME280;34170;54.364;18.582;2022-11-03T00:51:31;100583.38;;;8.11;100.00
48364;BME280;34170;54.364;18.582;2022-11-03T00:54:02;100592.63;;;8.30;100.00
48364;BME280;34170;54.364;18.582;2022-11-03T00:56:35;100600.31;;;8.12;100.00
48364;BME280;34170;54.364;18.582;2022-11-03T00:59:05;100606.03;;;7.96;100.00
48364;BME280;34170;54.364;18.582;2022-11-03T01:01:38;100605.66;;;7.89;100.00
48364;BME280;34170;54.364;18.582;2022-11-03T01:04:15;100612.13;;;7.98;100.00
48364;BME280;34170;54.364;18.582;2022-11-03T01:07:03;100609.44;;;8.09;100.00
48364;BME280;34170;54.364;18.582;2022-11-03T01:09:37;100611.50;;;8.17;100.00
48364;BME280;34170;54.364;18.582;2022-11-03T01:12:07;100614.06;;;8.07;100.00
48364;BME280;34170;54.364;18.582;2022-11-03T01:14:47;100612.81;;;7.77;100.00
48364;BME280;34170;54.364;18.582;2022-11-03T01:17:17;100614.03;;;7.85;100.00
48364;BME280;34170;54.364;18.582;2022-11-03T01:19:45;100612.59;;;7.92;100.00
48364;BME280;34170;54.364;18.582;2022-11-03T01:22:13;100610.88;;;7.79;100.00
48364;BME280;34170;54.364;18.582;2022-11-03T01:24:42;100614.75;;;7.75;100.00
48364;BME280;34170;54.364;18.582;2022-11-03T01:27:11;100609.28;;;7.66;100.00
48364;BME280;34170;54.364;18.582;2022-11-03T01:29:40;100615.94;;;7.60;100.00
48364;BME280;34170;54.364;18.582;2022-11-03T01:32:07;100603.28;;;7.51;100.00
48364;BME280;34170;54.364;18.582;2022-11-03T01:34:35;100599.75;;;7.50;100.00
48364;BME280;34170;54.364;18.582;2022-11-03T01:37:02;100606.31;;;7.46;100.00
48364;BME280;34170;54.364;18.582;2022-11-03T01:39:30;100603.31;;;7.62;100.00
48364;BME280;34170;54.364;18.582;2022-11-03T01:41:57;100606.94;;;7.50;100.00
48364;BME280;34170;54.364;18.582;2022-11-03T01:44:30;100613.00;;;7.52;100.00
48364;BME280;34170;54.364;18.582;2022-11-03T01:47:18;100620.59;;;7.69;100.00
48364;BME280;34170;54.364;18.582;2022-11-03T01:52:27;100619.88;;;7.78;100.00
48364;BME280;34170;54.364;18.582;2022-11-03T01:55:23;100615.16;;;7.82;100.00
48364;BME280;34170;54.364;18.582;2022-11-03T01:58:12;100627.03;;;7.78;100.00
48364;BME280;34170;54.364;18.582;2022-11-03T02:00:42;100628.63;;;7.69;100.00
48364;BME280;34170;54.364;18.582;2022-11-03T02:03:10;100631.94;;;7.73;100.00
48364;BME280;34170;54.364;18.582;2022-11-03T02:05:39;100621.78;;;7.54;100.00
48364;BME280;34170;54.364;18.582;2022-11-03T02:08:19;100633.38;;;7.66;100.00
48364;BME280;34170;54.364;18.582;2022-11-03T02:10:48;100631.25;;;7.47;100.00
48364;BME280;34170;54.364;18.582;2022-11-03T02:13:24;100634.31;;;7.53;100.00
48364;BME280;34170;54.364;18.582;2022-11-03T02:15:55;100638.31;;;7.48;100.00
48364;BME280;34170;54.364;18.582;2022-11-03T02:18:28;100641.88;;;7.59;100.00
48364;BME280;34170;54.364;18.582;2022-11-03T02:26:47;100632.56;;;7.41;100.00
48364;BME280;34170;54.364;18.582;2022-11-03T02:29:15;100628.59;;;7.58;100.00
48364;BME280;34170;54.364;18.582;2022-11-03T02:31:48;100626.72;;;7.47;100.00
48364;BME280;34170;54.364;18.582;2022-11-03T02:34:32;100630.16;;;7.49;100.00
48364;BME280;34170;54.364;18.582;2022-11-03T02:37:07;100631.53;;;7.55;100.00
48364;BME280;34170;54.364;18.582;2022-11-03T02:39:43;100643.16;;;7.42;100.00
48364;BME280;34170;54.364;18.582;2022-11-03T02:42:13;100644.19;;;7.64;100.00
48364;BME280;34170;54.364;18.582;2022-11-03T02:44:42;100636.59;;;7.47;100.00
48364;BME280;34170;54.364;18.582;2022-11-03T02:47:11;100640.13;;;7.47;100.00
48364;BME280;34170;54.364;18.582;2022-11-03T02:49:49;100633.78;;;7.37;100.00
48364;BME280;34170;54.364;18.582;2022-11-03T02:57:56;100656.47;;;7.55;100.00
48364;BME280;34170;54.364;18.582;2022-11-03T03:00:26;100652.97;;;7.66;100.00
48364;BME280;34170;54.364;18.582;2022-11-03T03:05:30;100644.47;;;7.37;100.00
48364;BME280;34170;54.364;18.582;2022-11-03T03:08:03;100644.75;;;7.56;100.00
48364;BME280;34170;54.364;18.582;2022-11-03T03:10:36;100651.00;;;7.57;100.00
48364;BME280;34170;54.364;18.582;2022-11-03T03:13:06;100639.16;;;7.48;100.00
48364;BME280;34170;54.364;18.582;2022-11-03T03:16:11;100639.28;;;7.47;100.00
48364;BME280;34170;54.364;18.582;2022-11-03T03:19:08;100636.59;;;7.47;100.00
48364;BME280;34170;54.364;18.582;2022-11-03T03:21:44;100642.38;;;7.29;100.00
48364;BME280;34170;54.364;18.582;2022-11-03T03:27:30;100632.97;;;7.48;100.00
48364;BME280;34170;54.364;18.582;2022-11-03T03:30:05;100640.50;;;7.42;100.00
48364;BME280;34170;54.364;18.582;2022-11-03T03:32:37;100655.00;;;7.51;100.00
48364;BME280;34170;54.364;18.582;2022-11-03T03:35:08;100663.06;;;7.38;100.00
48364;BME280;34170;54.364;18.582;2022-11-03T03:37:40;100666.44;;;7.29;100.00
48364;BME280;34170;54.364;18.582;2022-11-03T03:40:10;100668.72;;;7.22;100.00
48364;BME280;34170;54.364;18.582;2022-11-03T03:42:42;100672.19;;;7.36;100.00
48364;BME280;34170;54.364;18.582;2022-11-03T03:45:11;100668.78;;;7.10;100.00
48364;BME280;34170;54.364;18.582;2022-11-03T03:47:39;100658.75;;;7.00;100.00
48364;BME280;34170;54.364;18.582;2022-11-03T03:50:07;100653.88;;;7.18;100.00
48364;BME280;34170;54.364;18.582;2022-11-03T03:52:34;100656.44;;;7.20;100.00
48364;BME280;34170;54.364;18.582;2022-11-03T03:55:04;100670.16;;;7.39;100.00
48364;BME280;34170;54.364;18.582;2022-11-03T03:57:33;100665.41;;;7.43;100.00
48364;BME280;34170;54.364;18.582;2022-11-03T04:00:01;100665.47;;;7.30;100.00
48364;BME280;34170;54.364;18.582;2022-11-03T04:02:38;100671.34;;;7.35;100.00
48364;BME280;34170;54.364;18.582;2022-11-03T04:05:06;100676.84;;;7.45;100.00
48364;BME280;34170;54.364;18.582;2022-11-03T04:07:33;100670.44;;;7.48;100.00
48364;BME280;34170;54.364;18.582;2022-11-03T04:10:18;100676.16;;;7.54;100.00
48364;BME280;34170;54.364;18.582;2022-11-03T04:12:46;100676.84;;;7.45;100.00
48364;BME280;34170;54.364;18.582;2022-11-03T04:15:32;100676.59;;;7.37;100.00
48364;BME280;34170;54.364;18.582;2022-11-03T04:18:28;100679.69;;;7.55;100.00
48364;BME280;34170;54.364;18.582;2022-11-03T04:21:14;100685.06;;;7.55;100.00
48364;BME280;34170;54.364;18.582;2022-11-03T04:24:00;100686.66;;;7.69;100.00
48364;BME280;34170;54.364;18.582;2022-11-03T04:26:28;100684.44;;;7.51;100.00
48364;BME280;34170;54.364;18.582;2022-11-03T04:28:56;100676.75;;;7.58;100.00
48364;BME280;34170;54.364;18.582;2022-11-03T04:31:25;100689.44;;;7.67;100.00
48364;BME280;34170;54.364;18.582;2022-11-03T04:33:52;100689.44;;;7.67;100.00
48364;BME280;34170;54.364;18.582;2022-11-03T04:36:22;100678.50;;;7.59;100.00
48364;BME280;34170;54.364;18.582;2022-11-03T04:38:50;100685.50;;;7.49;100.00
48364;BME280;34170;54.364;18.582;2022-11-03T04:41:28;100690.97;;;7.47;100.00
48364;BME280;34170;54.364;18.582;2022-11-03T04:43:58;100687.56;;;7.45;100.00
48364;BME280;34170;54.364;18.582;2022-11-03T04:46:27;100688.06;;;7.26;100.00
48364;BME280;34170;54.364;18.582;2022-11-03T04:48:59;100691.09;;;7.21;100.00
48364;BME280;34170;54.364;18.582;2022-11-03T04:51:30;100680.47;;;7.09;100.00
48364;BME280;34170;54.364;18.582;2022-11-03T04:54:22;100681.53;;;7.06;100.00
48364;BME280;34170;54.364;18.582;2022-11-03T04:56:49;100675.38;;;7.17;100.00
48364;BME280;34170;54.364;18.582;2022-11-03T04:59:16;100683.03;;;6.97;100.00
48364;BME280;34170;54.364;18.582;2022-11-03T05:01:44;100678.78;;;6.95;100.00
48364;BME280;34170;54.364;18.582;2022-11-03T05:04:15;100676.38;;;7.16;100.00
48364;BME280;34170;54.364;18.582;2022-11-03T05:06:48;100685.34;;;7.15;100.00
48364;BME280;34170;54.364;18.582;2022-11-03T05:09:22;100680.03;;;7.02;100.00
48364;BME280;34170;54.364;18.582;2022-11-03T05:11:50;100688.66;;;6.94;100.00
48364;BME280;34170;54.364;18.582;2022-11-03T05:14:24;100689.47;;;6.95;100.00
48364;BME280;34170;54.364;18.582;2022-11-03T05:16:53;100691.69;;;6.77;100.00
48364;BME280;34170;54.364;18.582;2022-11-03T05:19:24;100693.44;;;6.52;100.00
48364;BME280;34170;54.364;18.582;2022-11-03T05:21:54;100697.44;;;6.71;100.00
48364;BME280;34170;54.364;18.582;2022-11-03T05:24:23;100684.66;;;6.63;100.00
48364;BME280;34170;54.364;18.582;2022-11-03T05:26:53;100690.19;;;6.60;100.00
48364;BME280;34170;54.364;18.582;2022-11-03T05:29:31;100698.34;;;6.58;100.00
48364;BME280;34170;54.364;18.582;2022-11-03T05:32:00;100687.31;;;6.63;100.00
48364;BME280;34170;54.364;18.582;2022-11-03T05:34:36;100692.22;;;6.82;100.00
48364;BME280;34170;54.364;18.582;2022-11-03T05:37:27;100701.78;;;6.60;100.00
48364;BME280;34170;54.364;18.582;2022-11-03T05:40:22;100692.16;;;6.45;100.00
48364;BME280;34170;54.364;18.582;2022-11-03T05:42:53;100695.81;;;6.44;100.00
48364;BME280;34170;54.364;18.582;2022-11-03T05:45:28;100686.38;;;6.38;100.00
48364;BME280;34170;54.364;18.582;2022-11-03T05:47:57;100682.31;;;6.45;100.00
48364;BME280;34170;54.364;18.582;2022-11-03T05:50:27;100677.50;;;6.51;100.00
48364;BME280;34170;54.364;18.582;2022-11-03T05:53:17;100686.16;;;6.54;100.00
48364;BME280;34170;54.364;18.582;2022-11-03T05:55:45;100686.16;;;6.54;100.00
48364;BME280;34170;54.364;18.582;2022-11-03T05:58:35;100691.09;;;6.60;100.00
48364;BME280;34170;54.364;18.582;2022-11-03T06:01:12;100695.81;;;6.44;100.00
48364;BME280;34170;54.364;18.582;2022-11-03T06:03:42;100690.34;;;6.58;100.00
48364;BME280;34170;54.364;18.582;2022-11-03T06:06:23;100690.19;;;6.73;100.00
48364;BME280;34170;54.364;18.582;2022-11-03T06:08:59;100688.94;;;6.65;100.00
48364;BME280;34170;54.364;18.582;2022-11-03T06:11:34;100700.47;;;6.66;100.00
48364;BME280;34170;54.364;18.582;2022-11-03T06:14:16;100681.00;;;6.77;100.00
48364;BME280;34170;54.364;18.582;2022-11-03T06:16:53;100692.22;;;6.82;100.00
48364;BME280;34170;54.364;18.582;2022-11-03T06:19:33;100696.34;;;6.86;100.00
48364;BME280;34170;54.364;18.582;2022-11-03T06:22:11;100689.31;;;6.85;100.00
48364;BME280;34170;54.364;18.582;2022-11-03T06:24:40;100696.69;;;6.81;100.00
48364;BME280;34170;54.364;18.582;2022-11-03T06:27:20;100706.09;;;6.87;100.00
48364;BME280;34170;54.364;18.582;2022-11-03T06:30:00;100701.28;;;6.92;100.00
48364;BME280;34170;54.364;18.582;2022-11-03T06:32:28;100716.69;;;6.89;100.00
48364;BME280;34170;54.364;18.582;2022-11-03T06:34:57;100710.56;;;6.86;100.00
48364;BME280;34170;54.364;18.582;2022-11-03T06:37:28;100717.06;;;6.95;100.00
48364;BME280;34170;54.364;18.582;2022-11-03T06:39:59;100717.81;;;6.97;100.00
48364;BME280;34170;54.364;18.582;2022-11-03T06:42:30;100732.53;;;7.16;100.00
48364;BME280;34170;54.364;18.582;2022-11-03T06:45:00;100727.19;;;7.16;100.00
48364;BME280;34170;54.364;18.582;2022-11-03T06:47:28;100724.31;;;7.54;100.00
48364;BME280;34170;54.364;18.582;2022-11-03T06:49:57;100732.03;;;7.94;100.00
48364;BME280;34170;54.364;18.582;2022-11-03T06:52:30;100725.78;;;8.97;100.00
48364;BME280;34170;54.364;18.582;2022-11-03T06:55:10;100729.03;;;9.88;100.00
48364;BME280;34170;54.364;18.582;2022-11-03T06:57:45;100741.03;;;11.18;100.00
48364;BME280;34170;54.364;18.582;2022-11-03T07:00:19;100741.16;;;12.34;99.61
48364;BME280;34170;54.364;18.582;2022-11-03T07:03:08;100746.84;;;13.61;86.47
48364;BME280;34170;54.364;18.582;2022-11-03T07:05:38;100744.75;;;13.73;84.29
48364;BME280;34170;54.364;18.582;2022-11-03T07:13:40;100764.66;;;16.46;65.44
48364;BME280;34170;54.364;18.582;2022-11-03T07:16:19;100769.13;;;17.03;57.88
48364;BME280;34170;54.364;18.582;2022-11-03T07:18:48;100765.69;;;17.09;57.99
48364;BME280;34170;54.364;18.582;2022-11-03T07:21:37;100771.53;;;16.89;58.10
48364;BME280;34170;54.364;18.582;2022-11-03T07:24:17;100752.66;;;17.90;56.53
48364;BME280;34170;54.364;18.582;2022-11-03T07:26:46;100754.03;;;17.86;53.89
48364;BME280;34170;54.364;18.582;2022-11-03T07:29:19;100756.13;;;18.75;52.15
48364;BME280;34170;54.364;18.582;2022-11-03T07:31:51;100761.75;;;18.73;50.29
48364;BME280;34170;54.364;18.582;2022-11-03T07:34:22;100761.50;;;19.49;48.82
48364;BME280;34170;54.364;18.582;2022-11-03T07:36:51;100768.44;;;20.10;47.85
48364;BME280;34170;54.364;18.582;2022-11-03T07:39:21;100772.13;;;18.93;48.19
48364;BME280;34170;54.364;18.582;2022-11-03T07:41:49;100761.75;;;17.74;51.20
48364;BME280;34170;54.364;18.582;2022-11-03T07:44:20;100771.34;;;18.69;50.02
48364;BME280;34170;54.364;18.582;2022-11-03T07:46:49;100764.31;;;19.56;48.52
48364;BME280;34170;54.364;18.582;2022-11-03T07:49:27;100771.91;;;19.60;46.54
48364;BME280;34170;54.364;18.582;2022-11-03T07:51:56;100754.88;;;19.95;46.50
48364;BME280;34170;54.364;18.582;2022-11-03T07:54:29;100763.50;;;19.77;47.51
48364;BME280;34170;54.364;18.582;2022-11-03T07:56:59;100760.13;;;20.18;45.18
48364;BME280;34170;54.364;18.582;2022-11-03T07:59:32;100774.94;;;20.59;43.79
48364;BME280;34170;54.364;18.582;2022-11-03T08:02:00;100766.72;;;19.66;45.85
48364;BME280;34170;54.364;18.582;2022-11-03T08:04:31;100759.63;;;20.36;44.20
48364;BME280;34170;54.364;18.582;2022-11-03T08:06:59;100764.47;;;20.97;43.13
48364;BME280;34170;54.364;18.582;2022-11-03T08:09:27;100762.63;;;20.69;42.77
48364;BME280;34170;54.364;18.582;2022-11-03T08:11:54;100771.53;;;20.85;42.78
48364;BME280;34170;54.364;18.582;2022-11-03T08:14:21;100760.16;;;21.64;40.97
48364;BME280;34170;54.364;18.582;2022-11-03T08:16:48;100762.09;;;22.24;40.89
48364;BME280;34170;54.364;18.582;2022-11-03T08:19:16;100766.50;;;21.85;40.53
48364;BME280;34170;54.364;18.582;2022-11-03T08:21:44;100763.78;;;22.52;38.42
48364;BME280;34170;54.364;18.582;2022-11-03T08:24:11;100757.59;;;23.10;38.71
48364;BME280;34170;54.364;18.582;2022-11-03T08:26:38;100758.97;;;22.34;39.68
48364;BME280;34170;54.364;18.582;2022-11-03T08:29:06;100754.72;;;22.04;40.27
48364;BME280;34170;54.364;18.582;2022-11-03T08:31:33;100751.50;;;21.61;40.99
48364;BME280;34170;54.364;18.582;2022-11-03T08:34:00;100749.22;;;21.98;40.25
48364;BME280;34170;54.364;18.582;2022-11-03T08:36:28;100749.56;;;21.48;41.16
48364;BME280;34170;54.364;18.582;2022-11-03T08:38:55;100744.16;;;20.78;42.67
48364;BME280;34170;54.364;18.582;2022-11-03T08:41:22;100746.94;;;21.95;40.05
48364;BME280;34170;54.364;18.582;2022-11-03T08:43:50;100744.31;;;21.05;41.55
48364;BME280;34170;54.364;18.582;2022-11-03T08:46:17;100742.16;;;21.42;41.13
48364;BME280;34170;54.364;18.582;2022-11-03T08:48:45;100741.47;;;21.95;40.35
48364;BME280;34170;54.364;18.582;2022-11-03T08:51:13;100733.69;;;22.32;38.85
48364;BME280;34170;54.364;18.582;2022-11-03T08:53:41;100726.69;;;22.16;39.68
48364;BME280;34170;54.364;18.582;2022-11-03T08:56:10;100730.72;;;22.26;39.14
48364;BME280;34170;54.364;18.582;2022-11-03T08:58:40;100730.69;;;22.73;37.91
48364;BME280;34170;54.364;18.582;2022-11-03T09:01:08;100735.63;;;23.16;37.35
48364;BME280;34170;54.364;18.582;2022-11-03T09:03:35;100735.31;;;23.38;36.38
48364;BME280;34170;54.364;18.582;2022-11-03T09:06:03;100739.13;;;22.65;37.59
48364;BME280;34170;54.364;18.582;2022-11-03T09:08:31;100727.56;;;22.09;38.18
48364;BME280;34170;54.364;18.582;2022-11-03T09:11:18;100725.44;;;22.05;37.57
48364;BME280;34170;54.364;18.582;2022-11-03T09:13:45;100723.34;;;22.34;37.92
48364;BME280;34170;54.364;18.582;2022-11-03T09:16:13;100722.00;;;22.83;36.19
48364;BME280;34170;54.364;18.582;2022-11-03T09:18:40;100738.97;;;23.25;36.18
48364;BME280;34170;54.364;18.582;2022-11-03T09:21:07;100729.44;;;22.49;35.81
48364;BME280;34170;54.364;18.582;2022-11-03T09:23:34;100730.41;;;22.88;35.99
48364;BME280;34170;54.364;18.582;2022-11-03T09:26:02;100721.38;;;22.68;34.62
48364;BME280;34170;54.364;18.582;2022-11-03T09:28:31;100725.03;;;22.21;36.26
48364;BME280;34170;54.364;18.582;2022-11-03T09:30:59;100724.78;;;22.70;35.77
48364;BME280;34170;54.364;18.582;2022-11-03T09:33:26;100717.84;;;21.80;37.20
48364;BME280;34170;54.364;18.582;2022-11-03T09:35:54;100724.41;;;22.39;36.64
48364;BME280;34170;54.364;18.582;2022-11-03T09:38:21;100713.97;;;22.75;35.19
48364;BME280;34170;54.364;18.582;2022-11-03T09:40:48;100722.06;;;22.50;35.57
48364;BME280;34170;54.364;18.582;2022-11-03T09:43:18;100730.50;;;23.27;34.29
48364;BME280;34170;54.364;18.582;2022-11-03T09:45:46;100716.56;;;23.28;34.76
48364;BME280;34170;54.364;18.582;2022-11-03T09:48:13;100721.63;;;23.31;33.96
48364;BME280;34170;54.364;18.582;2022-11-03T09:50:41;100724.38;;;22.59;35.27
48364;BME280;34170;54.364;18.582;2022-11-03T09:53:10;100706.69;;;21.75;37.07
48364;BME280;34170;54.364;18.582;2022-11-03T09:55:38;100721.75;;;20.96;37.63
48364;BME280;34170;54.364;18.582;2022-11-03T09:58:14;100714.22;;;20.35;38.84
48364;BME280;34170;54.364;18.582;2022-11-03T10:00:44;100722.00;;;19.09;41.11
48364;BME280;34170;54.364;18.582;2022-11-03T10:03:13;100720.91;;;18.88;41.97
48364;BME280;34170;54.364;18.582;2022-11-03T10:05:43;100715.00;;;18.99;42.90
48364;BME280;34170;54.364;18.582;2022-11-03T10:08:24;100711.31;;;19.07;41.63
48364;BME280;34170;54.364;18.582;2022-11-03T10:10:52;100719.75;;;18.97;41.35
48364;BME280;34170;54.364;18.582;2022-11-03T10:13:28;100710.00;;;18.58;42.33
48364;BME280;34170;54.364;18.582;2022-11-03T10:15:58;100712.66;;;19.54;40.37
48364;BME280;34170;54.364;18.582;2022-11-03T10:18:27;100705.94;;;18.99;40.31
48364;BME280;34170;54.364;18.582;2022-11-03T10:20:55;100714.84;;;19.44;40.01
48364;BME280;34170;54.364;18.582;2022-11-03T10:23:24;100714.56;;;19.17;40.46
48364;BME280;34170;54.364;18.582;2022-11-03T10:25:59;100713.47;;;18.97;40.99
48364;BME280;34170;54.364;18.582;2022-11-03T10:28:29;100704.16;;;18.76;41.18
48364;BME280;34170;54.364;18.582;2022-11-03T10:31:05;100693.66;;;18.58;41.20
48364;BME280;34170;54.364;18.582;2022-11-03T10:33:40;100701.47;;;19.86;39.17
48364;BME280;34170;54.364;18.582;2022-11-03T10:38:41;100692.19;;;19.65;39.76
48364;BME280;34170;54.364;18.582;2022-11-03T10:41:12;100689.31;;;18.94;39.71
48364;BME280;34170;54.364;18.582;2022-11-03T10:43:41;100681.19;;;17.96;41.08
48364;BME280;34170;54.364;18.582;2022-11-03T10:46:15;100687.94;;;17.54;42.50
48364;BME280;34170;54.364;18.582;2022-11-03T10:49:22;100684.44;;;16.91;43.45
48364;BME280;34170;54.364;18.582;2022-11-03T10:51:52;100678.06;;;17.07;43.69
48364;BME280;34170;54.364;18.582;2022-11-03T10:54:22;100674.97;;;16.14;46.11
48364;BME280;34170;54.364;18.582;2022-11-03T10:56:50;100678.00;;;16.28;45.76
48364;BME280;34170;54.364;18.582;2022-11-03T10:59:21;100673.97;;;17.11;44.82
48364;BME280;34170;54.364;18.582;2022-11-03T11:01:50;100675.25;;;16.44;45.49
48364;BME280;34170;54.364;18.582;2022-11-03T11:04:19;100660.94;;;15.94;46.80
48364;BME280;34170;54.364;18.582;2022-11-03T11:06:47;100662.84;;;15.02;49.95
48364;BME280;34170;54.364;18.582;2022-11-03T11:09:22;100648.41;;;14.16;52.14
48364;BME280;34170;54.364;18.582;2022-11-03T11:17:01;100642.25;;;12.90;57.61
48364;BME280;34170;54.364;18.582;2022-11-03T11:19:29;100641.94;;;13.11;58.18
48364;BME280;34170;54.364;18.582;2022-11-03T11:21:59;100641.19;;;13.01;58.35
48364;BME280;34170;54.364;18.582;2022-11-03T11:29:59;100628.88;;;12.70;61.54
48364;BME280;34170;54.364;18.582;2022-11-03T11:32:54;100633.34;;;12.52;63.45
48364;BME280;34170;54.364;18.582;2022-11-03T11:37:53;100628.44;;;12.37;64.85
48364;BME280;34170;54.364;18.582;2022-11-03T11:48:38;100616.53;;;11.93;67.22
48364;BME280;34170;54.364;18.582;2022-11-03T11:51:10;100624.22;;;11.97;67.88
48364;BME280;34170;54.364;18.582;2022-11-03T11:53:40;100615.56;;;11.94;68.68
48364;BME280;34170;54.364;18.582;2022-11-03T11:56:10;100614.41;;;11.96;69.06
48364;BME280;34170;54.364;18.582;2022-11-03T11:58:44;100609.19;;;11.95;69.35
48364;BME280;34170;54.364;18.582;2022-11-03T12:03:48;100618.44;;;11.63;71.15
48364;BME280;34170;54.364;18.582;2022-11-03T12:06:30;100615.72;;;11.73;70.96
48364;BME280;34170;54.364;18.582;2022-11-03T12:09:20;100599.31;;;11.56;71.45
48364;BME280;34170;54.364;18.582;2022-11-03T12:11:50;100600.44;;;11.63;72.09
48364;BME280;34170;54.364;18.582;2022-11-03T12:16:51;100592.81;;;11.20;74.03
48364;BME280;34170;54.364;18.582;2022-11-03T12:19:39;100596.63;;;11.17;75.50
48364;BME280;34170;54.364;18.582;2022-11-03T12:22:09;100593.38;;;11.43;76.12
48364;BME280;34170;54.364;18.582;2022-11-03T12:24:50;100584.03;;;11.28;76.25
48364;BME280;34170;54.364;18.582;2022-11-03T12:29:45;100575.81;;;11.29;77.01
48364;BME280;34170;54.364;18.582;2022-11-03T12:32:12;100587.56;;;11.38;76.20
48364;BME280;34170;54.364;18.582;2022-11-03T12:35:05;100581.34;;;11.08;76.72
48364;BME280;34170;54.364;18.582;2022-11-03T12:37:34;100576.78;;;10.89;78.30
48364;BME280;34170;54.364;18.582;2022-11-03T12:40:02;100561.22;;;10.83;78.45
48364;BME280;34170;54.364;18.582;2022-11-03T12:42:30;100565.47;;;10.95;78.24
48364;BME280;34170;54.364;18.582;2022-11-03T12:44:57;100570.16;;;11.13;76.94
48364;BME280;34170;54.364;18.582;2022-11-03T12:47:24;100565.06;;;11.10;76.64
48364;BME280;34170;54.364;18.582;2022-11-03T12:49:52;100563.50;;;11.07;76.63
48364;BME280;34170;54.364;18.582;2022-11-03T12:52:19;100556.56;;;10.95;77.05
48364;BME280;34170;54.364;18.582;2022-11-03T12:54:47;100556.69;;;11.03;75.86
48364;BME280;34170;54.364;18.582;2022-11-03T12:57:15;100558.84;;;11.09;77.42
48364;BME280;34170;54.364;18.582;2022-11-03T12:59:42;100549.31;;;11.34;78.52
48364;BME280;34170;54.364;18.582;2022-11-03T13:02:10;100543.81;;;11.16;76.52
48364;BME280;34170;54.364;18.582;2022-11-03T13:04:37;100551.03;;;11.06;76.34
48364;BME280;34170;54.364;18.582;2022-11-03T13:07:05;100542.09;;;11.15;77.21
48364;BME280;34170;54.364;18.582;2022-11-03T13:09:32;100548.75;;;11.31;76.04
48364;BME280;34170;54.364;18.582;2022-11-03T13:12:02;100535.28;;;11.21;75.06
48364;BME280;34170;54.364;18.582;2022-11-03T13:14:48;100541.50;;;11.31;74.93
48364;BME280;34170;54.364;18.582;2022-11-03T13:17:15;100541.66;;;11.10;76.24
48364;BME280;34170;54.364;18.582;2022-11-03T13:19:42;100537.56;;;10.96;76.67
48364;BME280;34170;54.364;18.582;2022-11-03T13:22:10;100524.09;;;11.25;74.04
48364;BME280;34170;54.364;18.582;2022-11-03T13:24:37;100530.63;;;11.03;73.70
48364;BME280;34170;54.364;18.582;2022-11-03T13:27:04;100535.16;;;11.13;74.19
48364;BME280;34170;54.364;18.582;2022-11-03T13:29:32;100527.94;;;11.03;75.28
48364;BME280;34170;54.364;18.582;2022-11-03T13:32:03;100538.84;;;11.12;75.76
48364;BME280;34170;54.364;18.582;2022-11-03T13:34:30;100532.47;;;11.22;75.27
48364;BME280;34170;54.364;18.582;2022-11-03T13:36:58;100519.88;;;11.13;76.19
48364;BME280;34170;54.364;18.582;2022-11-03T13:39:25;100536.00;;;11.03;76.28
48364;BME280;34170;54.364;18.582;2022-11-03T13:41:53;100531.22;;;10.87;76.48
48364;BME280;34170;54.364;18.582;2022-11-03T13:44:20;100515.63;;;10.81;76.53
48364;BME280;34170;54.364;18.582;2022-11-03T13:46:47;100521.00;;;10.72;78.15
48364;BME280;34170;54.364;18.582;2022-11-03T13:49:15;100521.69;;;10.64;77.50
48364;BME280;34170;54.364;18.582;2022-11-03T13:52:02;100511.38;;;10.69;78.08
48364;BME280;34170;54.364;18.582;2022-11-03T13:54:30;100507.50;;;10.42;80.23
48364;BME280;34170;54.364;18.582;2022-11-03T13:57:18;100518.31;;;10.52;81.19
48364;BME280;34170;54.364;18.582;2022-11-03T14:00:06;100509.34;;;10.42;82.57
48364;BME280;34170;54.364;18.582;2022-11-03T14:02:40;100510.78;;;10.46;83.15